sensor_id;sensor_type;location;lat;lon;timestamp;pressure;altitude;pressure_sealevel;temperature;humidity
70571;BME280;58135;50.948;-1.458;2022-07-10T00:01:57;102547.78;;;18.92;11.31
70571;BME280;58135;50.948;-1.458;2022-07-10T00:04:23;102550.05;;;17.78;11.78
70571;BME280;58135;50.948;-1.458;2022-07-10T00:06:48;102553.23;;;19.30;12.73
70571;BME280;58135;50.948;-1.458;2022-07-10T00:09:14;102557.43;;;19.42;13.34
70571;BME280;58135;50.948;-1.458;2022-07-10T00:11:39;102557.34;;;18.61;13.38
70571;BME280;58135;50.948;-1.458;2022-07-10T00:14:05;102554.96;;;20.38;13.75
70571;BME280;58135;50.948;-1.458;2022-07-10T00:16:30;102549.25;;;19.21;12.84
70571;BME280;58135;50.948;-1.458;2022-07-10T00:18:56;102543.62;;;17.27;13.19
70571;BME280;58135;50.948;-1.458;2022-07-10T00:21:22;102547.21;;;21.90;14.10
70571;BME280;58135;50.948;-1.458;2022-07-10T00:23:47;102546.67;;;20.98;13.10
70571;BME280;58135;50.948;-1.458;2022-07-10T00:26:12;102543.65;;;18.94;13.23
70571;BME280;58135;50.948;-1.458;2022-07-10T00:28:38;102545.14;;;20.48;12.40
70571;BME280;58135;50.948;-1.458;2022-07-10T00:31:03;102547.77;;;18.53;12.74
70571;BME280;58135;50.948;-1.458;2022-07-10T00:33:29;102544.80;;;17.60;13.22
70571;BME280;58135;50.948;-1.458;2022-07-10T00:35:54;102541.91;;;18.54;13.22
70571;BME280;58135;50.948;-1.458;2022-07-10T00:38:20;102541.73;;;20.27;12.93
70571;BME280;58135;50.948;-1.458;2022-07-10T00:40:45;102538.45;;;21.20;13.35
70571;BME280;58135;50.948;-1.458;2022-07-10T00:43:11;102537.16;;;19.62;13.28
70571;BME280;58135;50.948;-1.458;2022-07-10T00:45:36;102540.63;;;18.39;12.78
70571;BME280;58135;50.948;-1.458;2022-07-10T00:48:02;102543.70;;;18.06;14.03
70571;BME280;58135;50.948;-1.458;2022-07-10T00:50:28;102545.16;;;20.83;13.17
70571;BME280;58135;50.948;-1.458;2022-07-10T00:52:53;102542.41;;;19.79;12.81
70571;BME280;58135;50.948;-1.458;2022-07-10T00:55:19;102538.50;;;20.40;13.17
70571;BME280;58135;50.948;-1.458;2022-07-10T00:57:44;102539.66;;;19.52;11.86
70571;BME280;58135;50.948;-1.458;2022-07-10T01:00:10;102537.38;;;17.59;13.25
70571;BME280;58135;50.948;-1.458;2022-07-10T01:02:35;102533.91;;;18.64;13.89
70571;BME280;58135;50.948;-1.458;2022-07-10T01:05:00;102533.51;;;19.20;13.93
70571;BME280;58135;50.948;-1.458;2022-07-10T01:07:26;102532.83;;;21.16;13.28
70571;BME280;58135;50.948;-1.458;2022-07-10T01:09:51;102528.36;;;18.45;14.08
70571;BME280;58135;50.948;-1.458;2022-07-10T01:12:17;102528.03;;;19.30;13.79
70571;BME280;58135;50.948;-1.458;2022-07-10T01:14:43;102526.53;;;19.32;13.25
70571;BME280;58135;50.948;-1.458;2022-07-10T01:17:08;102522.77;;;18.93;13.69
70571;BME280;58135;50.948;-1.458;2022-07-10T01:19:33;102523.49;;;18.01;14.64
70571;BME280;58135;50.948;-1.458;2022-07-10T01:21:59;102525.81;;;17.26;15.03
70571;BME280;58135;50.948;-1.458;2022-07-10T01:24:24;102527.86;;;18.16;15.08
70571;BME280;58135;50.948;-1.458;2022-07-10T01:26:49;102526.54;;;19.33;15.05
70571;BME280;58135;50.948;-1.458;2022-07-10T01:29:15;102519.93;;;19.37;14.24
70571;BME280;58135;50.948;-1.458;2022-07-10T01:31:41;102523.27;;;18.11;14.97
70571;BME280;58135;50.948;-1.458;2022-07-10T01:34:08;102521.57;;;17.28;14.85
70571;BME280;58135;50.948;-1.458;2022-07-10T01:36:32;102515.54;;;18.09;14.34
70571;BME280;58135;50.948;-1.458;2022-07-10T01:38:58;102516.77;;;20.72;14.43
70571;BME280;58135;50.948;-1.458;2022-07-10T01:41:23;102515.68;;;19.11;14.64
70571;BME280;58135;50.948;-1.458;2022-07-10T01:43:48;102514.13;;;18.81;14.93
70571;BME280;58135;50.948;-1.458;2022-07-10T01:46:15;102510.04;;;18.79;14.57
70571;BME280;58135;50.948;-1.458;2022-07-10T01:48:39;102511.24;;;19.41;14.57
70571;BME280;58135;50.948;-1.458;2022-07-10T01:51:05;102510.63;;;18.46;14.00
70571;BME280;58135;50.948;-1.458;2022-07-10T01:53:30;102508.79;;;18.84;14.90
70571;BME280;58135;50.948;-1.458;2022-07-10T01:55:56;102509.41;;;19.35;15.43
70571;BME280;58135;50.948;-1.458;2022-07-10T01:58:26;102514.72;;;17.24;15.22
70571;BME280;58135;50.948;-1.458;2022-07-10T02:00:46;102513.42;;;16.65;15.43
70571;BME280;58135;50.948;-1.458;2022-07-10T02:03:12;102513.17;;;18.66;14.85
70571;BME280;58135;50.948;-1.458;2022-07-10T02:05:38;102510.14;;;17.45;14.94
70571;BME280;58135;50.948;-1.458;2022-07-10T02:08:04;102510.09;;;17.97;15.37
70571;BME280;58135;50.948;-1.458;2022-07-10T02:10:29;102509.38;;;18.07;15.06
70571;BME280;58135;50.948;-1.458;2022-07-10T02:12:54;102513.80;;;17.34;15.30
70571;BME280;58135;50.948;-1.458;2022-07-10T02:15:20;102513.48;;;18.34;15.46
70571;BME280;58135;50.948;-1.458;2022-07-10T02:17:45;102515.85;;;17.26;14.97
70571;BME280;58135;50.948;-1.458;2022-07-10T02:20:11;102517.03;;;17.02;15.13
70571;BME280;58135;50.948;-1.458;2022-07-10T02:22:36;102519.73;;;17.61;15.04
70571;BME280;58135;50.948;-1.458;2022-07-10T02:25:02;102517.98;;;19.17;15.37
70571;BME280;58135;50.948;-1.458;2022-07-10T02:27:27;102518.94;;;18.51;16.07
70571;BME280;58135;50.948;-1.458;2022-07-10T02:29:52;102509.85;;;18.69;15.25
70571;BME280;58135;50.948;-1.458;2022-07-10T02:32:17;102501.80;;;18.94;15.09
70571;BME280;58135;50.948;-1.458;2022-07-10T02:34:43;102495.28;;;18.97;14.86
70571;BME280;58135;50.948;-1.458;2022-07-10T02:37:08;102498.68;;;16.91;14.48
70571;BME280;58135;50.948;-1.458;2022-07-10T02:39:34;102500.37;;;18.42;15.17
70571;BME280;58135;50.948;-1.458;2022-07-10T02:42:00;102498.23;;;18.39;14.96
70571;BME280;58135;50.948;-1.458;2022-07-10T02:44:25;102497.82;;;19.11;14.45
70571;BME280;58135;50.948;-1.458;2022-07-10T02:46:50;102498.65;;;17.10;15.45
70571;BME280;58135;50.948;-1.458;2022-07-10T02:49:15;102499.84;;;17.95;15.94
70571;BME280;58135;50.948;-1.458;2022-07-10T02:51:41;102498.99;;;16.85;15.74
70571;BME280;58135;50.948;-1.458;2022-07-10T02:54:06;102499.99;;;17.67;16.16
70571;BME280;58135;50.948;-1.458;2022-07-10T02:56:31;102498.94;;;16.96;15.94
70571;BME280;58135;50.948;-1.458;2022-07-10T02:58:56;102499.43;;;16.24;15.99
70571;BME280;58135;50.948;-1.458;2022-07-10T03:01:22;102498.35;;;17.13;15.38
70571;BME280;58135;50.948;-1.458;2022-07-10T03:03:47;102498.87;;;17.25;15.34
70571;BME280;58135;50.948;-1.458;2022-07-10T03:06:12;102500.32;;;17.29;15.12
70571;BME280;58135;50.948;-1.458;2022-07-10T03:08:37;102503.59;;;19.99;15.59
70571;BME280;58135;50.948;-1.458;2022-07-10T03:11:03;102504.14;;;19.15;15.49
70571;BME280;58135;50.948;-1.458;2022-07-10T03:13:28;102505.46;;;16.53;15.75
70571;BME280;58135;50.948;-1.458;2022-07-10T03:15:53;102502.32;;;17.42;14.98
70571;BME280;58135;50.948;-1.458;2022-07-10T03:18:18;102497.81;;;18.36;15.49
70571;BME280;58135;50.948;-1.458;2022-07-10T03:20:44;102498.07;;;17.50;15.63
70571;BME280;58135;50.948;-1.458;2022-07-10T03:23:10;102499.28;;;20.16;15.66
70571;BME280;58135;50.948;-1.458;2022-07-10T03:25:35;102499.41;;;17.46;15.19
70571;BME280;58135;50.948;-1.458;2022-07-10T03:28:00;102500.07;;;17.38;15.53
70571;BME280;58135;50.948;-1.458;2022-07-10T03:30:26;102498.84;;;16.36;15.81
70571;BME280;58135;50.948;-1.458;2022-07-10T03:32:51;102496.75;;;17.24;16.04
70571;BME280;58135;50.948;-1.458;2022-07-10T03:35:17;102494.32;;;18.13;15.69
70571;BME280;58135;50.948;-1.458;2022-07-10T03:37:42;102490.14;;;17.98;16.03
70571;BME280;58135;50.948;-1.458;2022-07-10T03:40:08;102488.63;;;18.05;16.43
70571;BME280;58135;50.948;-1.458;2022-07-10T03:42:33;102490.18;;;15.50;16.35
70571;BME280;58135;50.948;-1.458;2022-07-10T03:44:58;102487.24;;;18.23;16.24
70571;BME280;58135;50.948;-1.458;2022-07-10T03:47:24;102484.02;;;18.17;16.04
70571;BME280;58135;50.948;-1.458;2022-07-10T03:49:49;102487.40;;;19.96;16.15
70571;BME280;58135;50.948;-1.458;2022-07-10T03:52:15;102485.68;;;18.24;15.96
70571;BME280;58135;50.948;-1.458;2022-07-10T03:54:40;102486.48;;;18.86;15.75
70571;BME280;58135;50.948;-1.458;2022-07-10T03:57:06;102487.43;;;16.05;15.72
70571;BME280;58135;50.948;-1.458;2022-07-10T03:59:31;102486.11;;;18.60;15.67
70571;BME280;58135;50.948;-1.458;2022-07-10T04:01:56;102483.61;;;16.58;15.06
70571;BME280;58135;50.948;-1.458;2022-07-10T04:04:22;102478.64;;;16.28;15.31
70571;BME280;58135;50.948;-1.458;2022-07-10T04:06:48;102475.93;;;15.26;15.57
70571;BME280;58135;50.948;-1.458;2022-07-10T04:09:13;102473.44;;;17.00;15.36
70571;BME280;58135;50.948;-1.458;2022-07-10T04:11:39;102469.75;;;18.78;15.78
70571;BME280;58135;50.948;-1.458;2022-07-10T04:14:04;102471.42;;;17.88;15.76
70571;BME280;58135;50.948;-1.458;2022-07-10T04:16:29;102468.88;;;17.67;15.87
70571;BME280;58135;50.948;-1.458;2022-07-10T04:18:55;102468.82;;;18.53;15.68
70571;BME280;58135;50.948;-1.458;2022-07-10T04:21:20;102470.41;;;17.64;15.70
70571;BME280;58135;50.948;-1.458;2022-07-10T04:23:46;102471.53;;;17.54;15.93
70571;BME280;58135;50.948;-1.458;2022-07-10T04:26:11;102473.82;;;17.62;15.79
70571;BME280;58135;50.948;-1.458;2022-07-10T04:28:36;102476.13;;;17.53;15.88
70571;BME280;58135;50.948;-1.458;2022-07-10T04:31:02;102476.79;;;19.25;16.18
70571;BME280;58135;50.948;-1.458;2022-07-10T04:33:27;102477.84;;;16.55;16.28
70571;BME280;58135;50.948;-1.458;2022-07-10T04:35:53;102475.86;;;16.60;16.25
70571;BME280;58135;50.948;-1.458;2022-07-10T04:38:18;102476.39;;;17.54;16.24
70571;BME280;58135;50.948;-1.458;2022-07-10T04:40:44;102477.11;;;18.36;16.14
70571;BME280;58135;50.948;-1.458;2022-07-10T04:43:10;102476.91;;;16.53;16.11
70571;BME280;58135;50.948;-1.458;2022-07-10T04:45:35;102477.56;;;17.29;15.97
70571;BME280;58135;50.948;-1.458;2022-07-10T04:48:01;102476.94;;;17.30;15.85
70571;BME280;58135;50.948;-1.458;2022-07-10T04:50:26;102474.15;;;18.21;15.99
70571;BME280;58135;50.948;-1.458;2022-07-10T04:52:52;102474.98;;;18.17;16.10
70571;BME280;58135;50.948;-1.458;2022-07-10T04:55:17;102479.27;;;15.63;16.16
70571;BME280;58135;50.948;-1.458;2022-07-10T04:57:43;102479.72;;;18.30;16.14
70571;BME280;58135;50.948;-1.458;2022-07-10T05:00:10;102481.47;;;19.13;16.14
70571;BME280;58135;50.948;-1.458;2022-07-10T05:02:34;102481.21;;;17.25;16.18
70571;BME280;58135;50.948;-1.458;2022-07-10T05:05:00;102480.39;;;18.96;16.18
70571;BME280;58135;50.948;-1.458;2022-07-10T05:07:25;102477.90;;;16.23;16.09
70571;BME280;58135;50.948;-1.458;2022-07-10T05:09:51;102477.72;;;17.97;16.17
70571;BME280;58135;50.948;-1.458;2022-07-10T05:12:16;102477.13;;;16.09;16.18
70571;BME280;58135;50.948;-1.458;2022-07-10T05:14:42;102478.33;;;16.96;16.12
70571;BME280;58135;50.948;-1.458;2022-07-10T05:17:07;102475.06;;;17.13;16.09
70571;BME280;58135;50.948;-1.458;2022-07-10T05:19:33;102471.25;;;17.21;16.12
70571;BME280;58135;50.948;-1.458;2022-07-10T05:22:04;102466.04;;;19.05;16.01
70571;BME280;58135;50.948;-1.458;2022-07-10T05:24:24;102468.15;;;17.38;15.96
70571;BME280;58135;50.948;-1.458;2022-07-10T05:26:50;102468.84;;;17.40;15.99
70571;BME280;58135;50.948;-1.458;2022-07-10T05:29:15;102469.91;;;18.29;16.01
70571;BME280;58135;50.948;-1.458;2022-07-10T05:31:41;102471.55;;;19.24;15.93
70571;BME280;58135;50.948;-1.458;2022-07-10T05:34:06;102472.77;;;17.56;16.01
70571;BME280;58135;50.948;-1.458;2022-07-10T05:36:32;102475.64;;;18.53;16.33
70571;BME280;58135;50.948;-1.458;2022-07-10T05:38:57;102477.15;;;16.69;16.32
70571;BME280;58135;50.948;-1.458;2022-07-10T05:41:23;102477.29;;;19.45;16.39
70571;BME280;58135;50.948;-1.458;2022-07-10T05:43:48;102478.37;;;17.79;16.45
70571;BME280;58135;50.948;-1.458;2022-07-10T05:46:14;102480.94;;;17.90;16.68
70571;BME280;58135;50.948;-1.458;2022-07-10T05:48:39;102484.85;;;17.90;16.59
70571;BME280;58135;50.948;-1.458;2022-07-10T05:51:04;102488.78;;;16.33;16.61
70571;BME280;58135;50.948;-1.458;2022-07-10T05:53:30;102488.14;;;17.36;16.52
70571;BME280;58135;50.948;-1.458;2022-07-10T05:55:59;102489.64;;;18.31;16.60
70571;BME280;58135;50.948;-1.458;2022-07-10T05:58:21;102490.29;;;18.33;16.60
70571;BME280;58135;50.948;-1.458;2022-07-10T06:00:47;102490.43;;;18.14;16.44
70571;BME280;58135;50.948;-1.458;2022-07-10T06:03:12;102487.14;;;18.26;16.72
70571;BME280;58135;50.948;-1.458;2022-07-10T06:05:37;102483.01;;;17.45;16.74
70571;BME280;58135;50.948;-1.458;2022-07-10T06:08:03;102481.21;;;18.52;16.66
70571;BME280;58135;50.948;-1.458;2022-07-10T06:10:28;102482.76;;;18.77;16.83
70571;BME280;58135;50.948;-1.458;2022-07-10T06:12:54;102481.52;;;18.51;17.06
70571;BME280;58135;50.948;-1.458;2022-07-10T06:15:20;102482.73;;;17.43;17.26
70571;BME280;58135;50.948;-1.458;2022-07-10T06:17:45;102481.75;;;19.13;17.32
70571;BME280;58135;50.948;-1.458;2022-07-10T06:20:11;102479.98;;;16.60;17.26
70571;BME280;58135;50.948;-1.458;2022-07-10T06:22:36;102480.91;;;15.67;17.29
70571;BME280;58135;50.948;-1.458;2022-07-10T06:25:04;102479.70;;;16.47;17.56
70571;BME280;58135;50.948;-1.458;2022-07-10T06:27:27;102483.12;;;15.78;17.42
70571;BME280;58135;50.948;-1.458;2022-07-10T06:29:52;102484.47;;;17.28;17.22
70571;BME280;58135;50.948;-1.458;2022-07-10T06:32:18;102479.61;;;18.48;16.87
70571;BME280;58135;50.948;-1.458;2022-07-10T06:34:43;102477.62;;;18.88;16.94
70571;BME280;58135;50.948;-1.458;2022-07-10T06:37:09;102476.98;;;19.30;16.97
70571;BME280;58135;50.948;-1.458;2022-07-10T06:39:34;102475.86;;;20.27;15.60
70571;BME280;58135;50.948;-1.458;2022-07-10T06:41:59;102474.48;;;17.85;16.47
70571;BME280;58135;50.948;-1.458;2022-07-10T06:44:25;102475.83;;;17.41;16.77
70571;BME280;58135;50.948;-1.458;2022-07-10T06:46:51;102478.59;;;18.46;16.65
70571;BME280;58135;50.948;-1.458;2022-07-10T06:49:16;102474.77;;;19.64;16.61
70571;BME280;58135;50.948;-1.458;2022-07-10T06:51:42;102472.98;;;17.84;16.32
70571;BME280;58135;50.948;-1.458;2022-07-10T06:54:07;102472.08;;;17.89;16.33
70571;BME280;58135;50.948;-1.458;2022-07-10T06:56:33;102474.65;;;19.91;16.38
70571;BME280;58135;50.948;-1.458;2022-07-10T06:58:58;102473.65;;;18.48;16.38
70571;BME280;58135;50.948;-1.458;2022-07-10T07:01:24;102474.46;;;18.83;16.37
70571;BME280;58135;50.948;-1.458;2022-07-10T07:03:49;102471.11;;;19.00;15.36
70571;BME280;58135;50.948;-1.458;2022-07-10T07:06:15;102470.64;;;17.39;15.87
70571;BME280;58135;50.948;-1.458;2022-07-10T07:08:40;102468.50;;;19.37;15.63
70571;BME280;58135;50.948;-1.458;2022-07-10T07:11:06;102472.33;;;19.33;15.05
70571;BME280;58135;50.948;-1.458;2022-07-10T07:13:31;102475.18;;;20.24;15.46
70571;BME280;58135;50.948;-1.458;2022-07-10T07:15:57;102475.31;;;20.37;15.38
70571;BME280;58135;50.948;-1.458;2022-07-10T07:18:23;102476.76;;;20.74;15.38
70571;BME280;58135;50.948;-1.458;2022-07-10T07:20:48;102478.98;;;19.22;15.36
70571;BME280;58135;50.948;-1.458;2022-07-10T07:23:13;102481.20;;;19.50;15.32
70571;BME280;58135;50.948;-1.458;2022-07-10T07:25:40;102485.84;;;19.56;14.79
70571;BME280;58135;50.948;-1.458;2022-07-10T07:28:05;102483.38;;;20.59;14.85
70571;BME280;58135;50.948;-1.458;2022-07-10T07:30:30;102483.99;;;21.58;14.80
70571;BME280;58135;50.948;-1.458;2022-07-10T07:32:56;102482.95;;;21.78;15.05
70571;BME280;58135;50.948;-1.458;2022-07-10T07:35:21;102480.54;;;19.33;14.77
70571;BME280;58135;50.948;-1.458;2022-07-10T07:37:50;102477.57;;;19.32;14.86
70571;BME280;58135;50.948;-1.458;2022-07-10T07:40:13;102478.61;;;19.37;14.59
70571;BME280;58135;50.948;-1.458;2022-07-10T07:42:38;102478.49;;;21.14;14.41
70571;BME280;58135;50.948;-1.458;2022-07-10T07:45:04;102476.77;;;20.22;14.40
70571;BME280;58135;50.948;-1.458;2022-07-10T07:47:29;102475.54;;;20.28;14.09
70571;BME280;58135;50.948;-1.458;2022-07-10T07:49:54;102475.88;;;19.69;14.67
70571;BME280;58135;50.948;-1.458;2022-07-10T07:52:20;102476.13;;;19.13;14.68
70571;BME280;58135;50.948;-1.458;2022-07-10T07:54:45;102473.04;;;20.24;14.72
70571;BME280;58135;50.948;-1.458;2022-07-10T07:57:11;102471.14;;;21.06;14.24
70571;BME280;58135;50.948;-1.458;2022-07-10T07:59:36;102468.94;;;21.07;14.41
70571;BME280;58135;50.948;-1.458;2022-07-10T08:02:02;102470.53;;;20.41;14.72
70571;BME280;58135;50.948;-1.458;2022-07-10T08:04:27;102471.27;;;20.41;14.60
70571;BME280;58135;50.948;-1.458;2022-07-10T08:06:53;102469.61;;;20.28;13.25
70571;BME280;58135;50.948;-1.458;2022-07-10T08:09:18;102471.32;;;18.50;14.38
70571;BME280;58135;50.948;-1.458;2022-07-10T08:11:44;102472.64;;;19.61;14.61
70571;BME280;58135;50.948;-1.458;2022-07-10T08:14:09;102476.30;;;20.61;14.39
70571;BME280;58135;50.948;-1.458;2022-07-10T08:16:35;102474.38;;;20.63;13.87
70571;BME280;58135;50.948;-1.458;2022-07-10T08:19:00;102475.31;;;21.94;13.88
70571;BME280;58135;50.948;-1.458;2022-07-10T08:21:26;102475.13;;;18.09;14.33
70571;BME280;58135;50.948;-1.458;2022-07-10T08:23:51;102473.81;;;19.53;14.96
70571;BME280;58135;50.948;-1.458;2022-07-10T08:26:17;102474.12;;;18.97;14.64
70571;BME280;58135;50.948;-1.458;2022-07-10T08:28:42;102475.43;;;20.84;14.06
70571;BME280;58135;50.948;-1.458;2022-07-10T08:31:08;102477.03;;;22.79;14.19
70571;BME280;58135;50.948;-1.458;2022-07-10T08:33:33;102477.96;;;19.61;14.42
70571;BME280;58135;50.948;-1.458;2022-07-10T08:35:59;102476.13;;;20.45;13.78
70571;BME280;58135;50.948;-1.458;2022-07-10T08:38:24;102473.38;;;20.18;13.86
70571;BME280;58135;50.948;-1.458;2022-07-10T08:40:50;102466.78;;;19.66;14.24
70571;BME280;58135;50.948;-1.458;2022-07-10T08:43:15;102463.08;;;21.08;14.53
70571;BME280;58135;50.948;-1.458;2022-07-10T08:45:41;102462.34;;;20.72;14.38
70571;BME280;58135;50.948;-1.458;2022-07-10T08:48:07;102452.79;;;20.14;11.63
70571;BME280;58135;50.948;-1.458;2022-07-10T08:50:33;102451.65;;;21.43;14.15
70571;BME280;58135;50.948;-1.458;2022-07-10T08:53:00;102443.18;;;18.65;14.13
70571;BME280;58135;50.948;-1.458;2022-07-10T08:55:25;102444.98;;;21.90;14.64
70571;BME280;58135;50.948;-1.458;2022-07-10T08:57:48;102444.55;;;22.54;14.70
70571;BME280;58135;50.948;-1.458;2022-07-10T09:00:14;102445.14;;;20.43;14.32
70571;BME280;58135;50.948;-1.458;2022-07-10T09:02:38;102446.54;;;21.13;14.07
70571;BME280;58135;50.948;-1.458;2022-07-10T09:05:04;102448.49;;;20.67;14.54
70571;BME280;58135;50.948;-1.458;2022-07-10T09:07:34;102449.34;;;22.91;14.19
70571;BME280;58135;50.948;-1.458;2022-07-10T09:09:56;102445.62;;;20.08;13.56
70571;BME280;58135;50.948;-1.458;2022-07-10T09:12:21;102439.73;;;22.19;13.25
70571;BME280;58135;50.948;-1.458;2022-07-10T09:14:46;102437.66;;;22.23;13.69
70571;BME280;58135;50.948;-1.458;2022-07-10T09:17:11;102430.91;;;21.64;12.80
70571;BME280;58135;50.948;-1.458;2022-07-10T09:19:39;102428.67;;;22.58;13.71
70571;BME280;58135;50.948;-1.458;2022-07-10T09:22:06;102428.95;;;20.67;13.41
70571;BME280;58135;50.948;-1.458;2022-07-10T09:24:35;102431.59;;;22.66;14.09
70571;BME280;58135;50.948;-1.458;2022-07-10T09:27:00;102427.63;;;21.47;13.62
70571;BME280;58135;50.948;-1.458;2022-07-10T09:29:19;102422.39;;;21.15;13.16
70571;BME280;58135;50.948;-1.458;2022-07-10T09:31:49;102421.70;;;22.98;12.58
70571;BME280;58135;50.948;-1.458;2022-07-10T09:34:10;102419.16;;;21.89;12.62
70571;BME280;58135;50.948;-1.458;2022-07-10T09:36:35;102417.57;;;20.30;13.32
70571;BME280;58135;50.948;-1.458;2022-07-10T09:39:01;102419.35;;;20.77;13.58
70571;BME280;58135;50.948;-1.458;2022-07-10T09:41:27;102420.49;;;22.33;13.86
70571;BME280;58135;50.948;-1.458;2022-07-10T09:43:52;102414.51;;;22.63;12.78
70571;BME280;58135;50.948;-1.458;2022-07-10T09:46:18;102416.52;;;23.32;13.52
70571;BME280;58135;50.948;-1.458;2022-07-10T09:48:43;102415.74;;;22.86;12.75
70571;BME280;58135;50.948;-1.458;2022-07-10T09:51:09;102415.17;;;23.17;12.78
70571;BME280;58135;50.948;-1.458;2022-07-10T09:53:37;102406.95;;;20.24;12.26
70571;BME280;58135;50.948;-1.458;2022-07-10T09:56:00;102406.93;;;21.96;12.59
70571;BME280;58135;50.948;-1.458;2022-07-10T09:58:25;102401.16;;;22.79;12.93
70571;BME280;58135;50.948;-1.458;2022-07-10T10:00:50;102401.20;;;21.66;12.84
70571;BME280;58135;50.948;-1.458;2022-07-10T10:03:17;102403.21;;;23.01;12.89
70571;BME280;58135;50.948;-1.458;2022-07-10T10:05:43;102399.22;;;23.27;12.70
70571;BME280;58135;50.948;-1.458;2022-07-10T10:08:11;102398.43;;;22.88;12.63
70571;BME280;58135;50.948;-1.458;2022-07-10T10:10:32;102399.74;;;24.31;12.68
70571;BME280;58135;50.948;-1.458;2022-07-10T10:12:58;102397.54;;;23.73;12.20
70571;BME280;58135;50.948;-1.458;2022-07-10T10:15:23;102398.58;;;23.91;12.27
70571;BME280;58135;50.948;-1.458;2022-07-10T10:17:50;102393.34;;;23.77;11.73
70571;BME280;58135;50.948;-1.458;2022-07-10T10:20:14;102389.95;;;23.65;11.89
70571;BME280;58135;50.948;-1.458;2022-07-10T10:22:40;102390.46;;;24.62;11.85
70571;BME280;58135;50.948;-1.458;2022-07-10T10:25:05;102392.24;;;24.31;12.13
70571;BME280;58135;50.948;-1.458;2022-07-10T10:27:30;102388.00;;;22.83;12.03
70571;BME280;58135;50.948;-1.458;2022-07-10T10:29:55;102381.30;;;22.98;11.39
70571;BME280;58135;50.948;-1.458;2022-07-10T10:32:21;102379.61;;;24.67;11.95
70571;BME280;58135;50.948;-1.458;2022-07-10T10:34:48;102379.78;;;23.99;11.54
70571;BME280;58135;50.948;-1.458;2022-07-10T10:37:28;102381.72;;;25.32;11.80
70571;BME280;58135;50.948;-1.458;2022-07-10T10:42:03;102383.95;;;22.68;11.15
70571;BME280;58135;50.948;-1.458;2022-07-10T10:44:28;102382.92;;;24.52;10.98
70571;BME280;58135;50.948;-1.458;2022-07-10T10:46:56;102384.40;;;23.80;11.54
70571;BME280;58135;50.948;-1.458;2022-07-10T10:49:20;102383.63;;;23.32;10.88
70571;BME280;58135;50.948;-1.458;2022-07-10T10:51:56;102380.13;;;23.76;10.73
70571;BME280;58135;50.948;-1.458;2022-07-10T10:54:10;102379.39;;;22.32;10.98
70571;BME280;58135;50.948;-1.458;2022-07-10T10:56:35;102373.97;;;25.81;11.06
70571;BME280;58135;50.948;-1.458;2022-07-10T10:59:01;102373.35;;;25.28;10.96
70571;BME280;58135;50.948;-1.458;2022-07-10T11:01:28;102367.26;;;23.68;10.99
70571;BME280;58135;50.948;-1.458;2022-07-10T11:08:43;102368.47;;;25.01;10.36
70571;BME280;58135;50.948;-1.458;2022-07-10T11:13:34;102362.89;;;24.64;10.32
70571;BME280;58135;50.948;-1.458;2022-07-10T11:16:00;102362.87;;;25.82;10.25
70571;BME280;58135;50.948;-1.458;2022-07-10T11:18:25;102362.07;;;26.21;10.50
70571;BME280;58135;50.948;-1.458;2022-07-10T11:20:51;102362.45;;;24.34;10.09
70571;BME280;58135;50.948;-1.458;2022-07-10T11:23:32;102359.08;;;25.00;10.35
70571;BME280;58135;50.948;-1.458;2022-07-10T11:25:42;102356.68;;;24.75;10.33
70571;BME280;58135;50.948;-1.458;2022-07-10T11:28:07;102358.47;;;26.27;10.18
70571;BME280;58135;50.948;-1.458;2022-07-10T11:30:43;102352.40;;;27.67;9.49
70571;BME280;58135;50.948;-1.458;2022-07-10T11:33:03;102351.84;;;27.91;9.25
70571;BME280;58135;50.948;-1.458;2022-07-10T11:35:22;102349.64;;;29.69;9.07
70571;BME280;58135;50.948;-1.458;2022-07-10T11:37:50;102349.73;;;29.35;8.76
70571;BME280;58135;50.948;-1.458;2022-07-10T11:40:14;102348.71;;;30.04;8.38
70571;BME280;58135;50.948;-1.458;2022-07-10T11:42:49;102346.48;;;32.20;7.91
70571;BME280;58135;50.948;-1.458;2022-07-10T11:47:29;102335.72;;;32.91;6.70
70571;BME280;58135;50.948;-1.458;2022-07-10T11:49:55;102336.48;;;32.55;6.46
70571;BME280;58135;50.948;-1.458;2022-07-10T11:52:20;102335.20;;;33.78;6.00
70571;BME280;58135;50.948;-1.458;2022-07-10T11:54:46;102332.32;;;35.16;5.83
70571;BME280;58135;50.948;-1.458;2022-07-10T11:57:11;102334.71;;;36.99;5.41
70571;BME280;58135;50.948;-1.458;2022-07-10T11:59:36;102331.50;;;38.53;4.83
70571;BME280;58135;50.948;-1.458;2022-07-10T12:02:02;102331.04;;;38.46;4.29
70571;BME280;58135;50.948;-1.458;2022-07-10T12:04:30;102332.23;;;39.04;4.03
70571;BME280;58135;50.948;-1.458;2022-07-10T12:06:53;102329.06;;;39.24;3.56
70571;BME280;58135;50.948;-1.458;2022-07-10T12:09:20;102329.17;;;39.01;3.65
70571;BME280;58135;50.948;-1.458;2022-07-10T12:11:57;102329.81;;;39.70;3.57
70571;BME280;58135;50.948;-1.458;2022-07-10T12:14:11;102326.60;;;40.15;3.27
70571;BME280;58135;50.948;-1.458;2022-07-10T12:16:35;102324.95;;;40.56;3.08
70571;BME280;58135;50.948;-1.458;2022-07-10T12:19:00;102323.54;;;41.04;3.04
70571;BME280;58135;50.948;-1.458;2022-07-10T12:21:25;102319.80;;;41.05;2.80
70571;BME280;58135;50.948;-1.458;2022-07-10T12:23:50;102320.06;;;41.04;2.64
70571;BME280;58135;50.948;-1.458;2022-07-10T12:26:16;102320.53;;;39.40;3.12
70571;BME280;58135;50.948;-1.458;2022-07-10T12:28:50;102314.73;;;40.85;2.33
70571;BME280;58135;50.948;-1.458;2022-07-10T12:31:07;102312.03;;;42.60;2.37
70571;BME280;58135;50.948;-1.458;2022-07-10T12:33:32;102310.85;;;43.20;1.97
70571;BME280;58135;50.948;-1.458;2022-07-10T12:35:58;102306.65;;;41.78;1.88
70571;BME280;58135;50.948;-1.458;2022-07-10T12:38:24;102305.36;;;41.76;1.69
70571;BME280;58135;50.948;-1.458;2022-07-10T12:40:49;102305.80;;;41.24;2.06
70571;BME280;58135;50.948;-1.458;2022-07-10T12:43:24;102302.09;;;39.08;1.96